Time;durP1;ratioP1;P1;durP2;ratioP2;P2;SDS_P1;SDS_P2;PMS_P1;PMS_P2;Temp;Humidity;BMP_temperature;BMP_pressure;BME280_temperature;BME280_humidity;BME280_pressure;Samples;Min_cycle;Max_cycle;Signal;HPM_P1;HPM_P2
2024/03/28 06:10:15;;;;;;;;;;;;;;;5.00;100.00;99763.59;1866401;75;20521;-72
2024/03/28 06:12:41;;;;;;;;;;;;;;;5.07;100.00;99765.50;1829641;76;20135;-70
2024/03/28 06:15:08;;;;;;;;;;;;;;;5.16;100.00;99771.61;1832249;77;20328;-70
2024/03/28 06:17:35;;;;;;;;;;;;;;;5.27;100.00;99775.89;1822302;77;20598;-72
2024/03/28 06:20:02;;;;;;;;;;;;;;;5.40;100.00;99769.80;1828123;78;20094;-75
2024/03/28 06:22:29;;;;;;;;;;;;;;;5.51;100.00;99768.10;1828042;77;20226;-72
2024/03/28 06:24:56;;;;;;;;;;;;;;;5.60;100.00;99769.00;1834140;77;20108;-70
2024/03/28 06:27:23;;;;;;;;;;;;;;;5.67;100.00;99773.86;1826452;77;20091;-70
2024/03/28 06:29:51;;;;;;;;;;;;;;;5.74;100.00;99773.17;1795525;78;20129;-70
2024/03/28 06:32:26;;;;;;;;;;;;;;;5.81;100.00;99771.18;1794610;78;20373;-70
2024/03/28 06:34:54;;;;;;;;;;;;;;;5.86;100.00;99773.13;1762252;80;20386;-69
2024/03/28 06:37:20;;;;;;;;;;;;;;;5.89;100.00;99778.20;1765089;80;20110;-70
2024/03/28 06:39:54;;;;;;;;;;;;;;;5.93;100.00;99769.42;1771724;80;20123;-71
2024/03/28 06:42:25;;;;;;;;;;;;;;;5.96;100.00;99766.27;1770146;79;20492;-73
2024/03/28 06:44:52;;;;;;;;;;;;;;;5.98;100.00;99763.63;1766546;80;20227;-72
2024/03/28 06:47:18;;;;;;;;;;;;;;;6.01;100.00;99763.46;1765914;79;20134;-71
2024/03/28 06:49:45;;;;;;;;;;;;;;;6.07;100.00;99758.49;1762258;80;20153;-73
2024/03/28 06:52:11;;;;;;;;;;;;;;;6.14;100.00;99754.75;1773644;80;20135;-71
2024/03/28 06:54:39;;;;;;;;;;;;;;;6.20;100.00;99757.08;1769807;79;20170;-72
2024/03/28 06:57:05;;;;;;;;;;;;;;;6.23;100.00;99746.16;1744576;79;20479;-74
2024/03/28 06:59:32;;;;;;;;;;;;;;;6.28;100.00;99749.84;1768816;79;20345;-71
2024/03/28 07:01:58;;;;;;;;;;;;;;;6.32;100.00;99739.30;1758037;80;20192;-71
2024/03/28 07:04:25;;;;;;;;;;;;;;;6.38;100.00;99736.06;1767548;79;20108;-69
2024/03/28 07:06:51;;;;;;;;;;;;;;;6.44;100.00;99728.02;1765448;80;20103;-71
2024/03/28 07:09:19;;;;;;;;;;;;;;;6.48;100.00;99722.64;1780368;80;20135;-71
2024/03/28 07:11:46;;;;;;;;;;;;;;;6.54;100.00;99719.78;1774727;80;20112;-70
2024/03/28 07:14:18;;;;;;;;;;;;;;;6.59;100.00;99715.70;1758683;79;20431;-69
2024/03/28 07:16:45;;;;;;;;;;;;;;;6.61;100.00;99710.00;1771204;80;20394;-72
2024/03/28 07:19:11;;;;;;;;;;;;;;;6.64;100.00;99713.75;1761443;79;20376;-73
2024/03/28 07:21:38;;;;;;;;;;;;;;;6.64;100.00;99705.53;1758479;80;20165;-74
2024/03/28 07:24:05;;;;;;;;;;;;;;;6.67;100.00;99708.44;1735940;80;20443;-72
2024/03/28 07:26:31;;;;;;;;;;;;;;;6.68;100.00;99699.77;1774345;79;20156;-76
2024/03/28 07:28:58;;;;;;;;;;;;;;;6.72;100.00;99702.60;1755288;80;20210;-75
2024/03/28 07:31:30;;;;;;;;;;;;;;;6.78;100.00;99692.43;1767989;80;20173;-71
2024/03/28 07:33:52;;;;;;;;;;;;;;;6.83;100.00;99694.33;1733107;81;20203;-72
2024/03/28 07:36:19;;;;;;;;;;;;;;;6.86;100.00;99692.89;1759989;80;20137;-72
2024/03/28 07:38:45;;;;;;;;;;;;;;;6.89;100.00;99691.00;1777128;79;20166;-71
2024/03/28 07:41:12;;;;;;;;;;;;;;;6.94;100.00;99690.79;1769124;80;20102;-75
2024/03/28 07:43:38;;;;;;;;;;;;;;;6.99;100.00;99688.83;1752998;80;20151;-73
2024/03/28 07:46:05;;;;;;;;;;;;;;;7.02;100.00;99681.77;1772427;80;20099;-73
2024/03/28 07:48:33;;;;;;;;;;;;;;;7.08;100.00;99681.93;1755670;81;20377;-74
2024/03/28 07:51:00;;;;;;;;;;;;;;;7.15;100.00;99693.67;1759511;80;20125;-71
2024/03/28 07:53:31;;;;;;;;;;;;;;;7.21;100.00;99683.00;1746708;80;20166;-73
2024/03/28 07:55:58;;;;;;;;;;;;;;;7.30;100.00;99672.66;1762354;79;20474;-77
2024/03/28 07:58:29;;;;;;;;;;;;;;;7.38;100.00;99682.66;1739219;81;20116;-75
2024/03/28 08:01:07;;;;;;;;;;;;;;;7.43;100.00;99678.93;1759585;80;20084;-75
2024/03/28 08:03:34;;;;;;;;;;;;;;;7.48;100.00;99666.59;1763621;80;20149;-74
2024/03/28 08:06:07;;;;;;;;;;;;;;;7.54;100.00;99673.23;1801189;78;20205;-78
2024/03/28 08:08:33;;;;;;;;;;;;;;;7.58;100.00;99666.98;1764550;80;20138;-73
2024/03/28 08:11:01;;;;;;;;;;;;;;;7.61;100.00;99661.62;1770793;80;20110;-78
2024/03/28 08:13:28;;;;;;;;;;;;;;;7.64;100.00;99658.42;1801135;78;20163;-74
2024/03/28 08:15:56;;;;;;;;;;;;;;;7.67;100.00;99653.55;1784862;80;20152;-71
2024/03/28 08:18:23;;;;;;;;;;;;;;;7.72;100.00;99659.80;1760827;80;20172;-73
2024/03/28 08:20:51;;;;;;;;;;;;;;;7.73;100.00;99650.65;1775022;80;20118;-74
2024/03/28 08:23:18;;;;;;;;;;;;;;;7.76;100.00;99647.91;1763313;80;20401;-73
2024/03/28 08:25:45;;;;;;;;;;;;;;;7.84;100.00;99657.89;1765508;79;20149;-72
2024/03/28 08:28:11;;;;;;;;;;;;;;;7.90;100.00;99644.16;1769092;79;20141;-73
2024/03/28 08:30:39;;;;;;;;;;;;;;;7.99;100.00;99641.56;1765469;79;20426;-73
2024/03/28 08:33:06;;;;;;;;;;;;;;;8.07;100.00;99644.56;1781727;79;20123;-72
2024/03/28 08:35:41;;;;;;;;;;;;;;;8.14;100.00;99647.68;1780278;79;20174;-73
2024/03/28 08:38:09;;;;;;;;;;;;;;;8.19;100.00;99639.20;1764537;79;20599;-73
2024/03/28 08:40:36;;;;;;;;;;;;;;;8.25;100.00;99631.10;1750876;81;20156;-73
2024/03/28 08:43:06;;;;;;;;;;;;;;;8.31;100.00;99633.38;1768168;79;20456;-77
2024/03/28 08:45:33;;;;;;;;;;;;;;;8.36;100.00;99630.11;1766734;79;20142;-74
2024/03/28 08:48:02;;;;;;;;;;;;;;;8.40;100.00;99622.52;1785414;79;20098;-74
2024/03/28 08:50:29;;;;;;;;;;;;;;;8.44;100.00;99618.84;1771995;79;20112;-73
2024/03/28 08:52:56;;;;;;;;;;;;;;;8.46;100.00;99618.30;1774733;79;20533;-73
2024/03/28 08:55:23;;;;;;;;;;;;;;;8.52;100.00;99615.84;1773739;79;20180;-75
2024/03/28 08:57:53;;;;;;;;;;;;;;;8.59;100.00;99609.39;1780543;79;20372;-77
2024/03/28 09:00:25;;;;;;;;;;;;;;;8.67;100.00;99613.71;1735726;79;20405;-74
2024/03/28 09:02:55;;;;;;;;;;;;;;;8.72;100.00;99622.55;1758423;79;20133;-73
2024/03/28 09:05:19;;;;;;;;;;;;;;;8.76;100.00;99621.46;1770386;79;20129;-71
2024/03/28 09:07:49;;;;;;;;;;;;;;;8.80;100.00;99622.47;1767694;79;20201;-72
2024/03/28 09:10:34;;;;;;;;;;;;;;;8.82;100.00;99619.80;1762790;79;20548;-78
2024/03/28 09:13:09;;;;;;;;;;;;;;;8.85;100.00;99613.13;1763252;79;20146;-74
2024/03/28 09:15:41;;;;;;;;;;;;;;;8.88;100.00;99606.02;1774649;80;20467;-75
2024/03/28 09:18:11;;;;;;;;;;;;;;;8.92;100.00;99615.31;1783037;79;20440;-70
2024/03/28 09:20:41;;;;;;;;;;;;;;;8.94;100.00;99605.67;1778106;79;20116;-74
2024/03/28 09:23:07;;;;;;;;;;;;;;;8.99;100.00;99604.13;1751936;79;20767;-73
2024/03/28 09:25:36;;;;;;;;;;;;;;;8.99;100.00;99606.72;1763584;79;20100;-72
2024/03/28 09:28:05;;;;;;;;;;;;;;;9.01;100.00;99600.98;1764635;79;20096;-74
2024/03/28 09:30:35;;;;;;;;;;;;;;;9.05;100.00;99603.78;1748631;79;20582;-73
2024/03/28 09:33:05;;;;;;;;;;;;;;;9.11;100.00;99611.69;1744410;80;20093;-73
2024/03/28 09:35:31;;;;;;;;;;;;;;;9.18;100.00;99605.23;1748741;81;20216;-76
2024/03/28 09:37:58;;;;;;;;;;;;;;;9.26;100.00;99603.00;1748537;80;20153;-72
2024/03/28 09:40:26;;;;;;;;;;;;;;;9.36;100.00;99601.55;1734487;81;20139;-78
2024/03/28 09:42:52;;;;;;;;;;;;;;;9.43;100.00;99602.03;1757767;80;20160;-76
2024/03/28 09:45:23;;;;;;;;;;;;;;;9.48;100.00;99602.14;1813542;77;20165;-75
2024/03/28 09:47:51;;;;;;;;;;;;;;;9.50;100.00;99598.16;1806697;77;20151;-73
2024/03/28 09:50:21;;;;;;;;;;;;;;;9.51;100.00;99597.23;1788711;78;20141;-75
2024/03/28 09:52:47;;;;;;;;;;;;;;;9.51;100.00;99595.94;1799502;78;20153;-70
2024/03/28 09:55:14;;;;;;;;;;;;;;;9.53;100.00;99600.58;1812577;77;20105;-77
2024/03/28 09:57:40;;;;;;;;;;;;;;;9.54;100.00;99599.66;1810084;77;20219;-78
2024/03/28 10:00:07;;;;;;;;;;;;;;;9.54;100.00;99592.69;1772881;79;20140;-74
2024/03/28 10:02:44;;;;;;;;;;;;;;;9.55;100.00;99589.17;1814470;77;20189;-72
2024/03/28 10:05:12;;;;;;;;;;;;;;;9.59;100.00;99598.92;1819719;77;20520;-75
2024/03/28 10:07:40;;;;;;;;;;;;;;;9.62;100.00;99585.71;1826768;77;20159;-70
2024/03/28 10:10:08;;;;;;;;;;;;;;;9.66;100.00;99591.11;1818210;77;20123;-74
2024/03/28 10:12:35;;;;;;;;;;;;;;;9.70;100.00;99581.73;1810433;77;20120;-74
2024/03/28 10:15:06;;;;;;;;;;;;;;;9.75;100.00;99583.23;1815962;77;20140;-76
2024/03/28 10:17:34;;;;;;;;;;;;;;;9.77;100.00;99582.67;1815533;77;20134;-73
2024/03/28 10:20:01;;;;;;;;;;;;;;;9.75;100.00;99570.23;1767083;79;20113;-71
2024/03/28 10:22:29;;;;;;;;;;;;;;;9.75;100.00;99576.27;1815991;77;20175;-72
2024/03/28 10:24:56;;;;;;;;;;;;;;;9.74;100.00;99575.05;1816159;77;20475;-72
2024/03/28 10:27:24;;;;;;;;;;;;;;;9.71;100.00;99569.58;1808708;78;20102;-71
2024/03/28 10:29:56;;;;;;;;;;;;;;;9.69;100.00;99571.43;1821553;77;20147;-74
2024/03/28 10:32:22;;;;;;;;;;;;;;;9.67;100.00;99568.08;1808227;77;20360;-70
2024/03/28 10:34:49;;;;;;;;;;;;;;;9.67;100.00;99574.58;1817959;77;20116;-71
2024/03/28 10:37:22;;;;;;;;;;;;;;;9.68;100.00;99576.25;1807093;77;20158;-74
2024/03/28 10:39:51;;;;;;;;;;;;;;;9.69;100.00;99572.27;1809356;77;20163;-70
2024/03/28 10:42:18;;;;;;;;;;;;;;;9.68;100.00;99567.99;1813092;77;20147;-74
2024/03/28 10:44:48;;;;;;;;;;;;;;;9.69;100.00;99564.47;1806756;77;20110;-71
2024/03/28 10:47:19;;;;;;;;;;;;;;;9.70;100.00;99560.10;1793614;78;20102;-75
2024/03/28 10:49:50;;;;;;;;;;;;;;;9.68;100.00;99552.39;1818740;77;20155;-74
2024/03/28 10:52:28;;;;;;;;;;;;;;;9.69;100.00;99551.47;1794865;78;20164;-69
2024/03/28 10:55:05;;;;;;;;;;;;;;;9.72;100.00;99553.52;1814903;77;20100;-73
2024/03/28 10:57:35;;;;;;;;;;;;;;;9.72;100.00;99541.34;1792116;77;20201;-70
2024/03/28 11:00:03;;;;;;;;;;;;;;;9.71;100.00;99531.88;1799714;77;20120;-77
2024/03/28 11:02:32;;;;;;;;;;;;;;;9.73;100.00;99527.88;1801809;78;20096;-73
2024/03/28 11:05:01;;;;;;;;;;;;;;;9.74;100.00;99517.39;1803794;78;20155;-73
2024/03/28 11:07:27;;;;;;;;;;;;;;;9.78;100.00;99528.45;1814701;77;20178;-72
2024/03/28 11:09:55;;;;;;;;;;;;;;;9.83;100.00;99527.23;1812165;77;20173;-74
2024/03/28 11:12:29;;;;;;;;;;;;;;;9.87;100.00;99519.63;1806520;79;20165;-74
2024/03/28 11:14:57;;;;;;;;;;;;;;;9.90;100.00;99523.80;1786644;78;20172;-71
2024/03/28 11:17:23;;;;;;;;;;;;;;;9.86;100.00;99514.05;1804978;77;20372;-71
2024/03/28 11:20:09;;;;;;;;;;;;;;;9.83;100.00;99514.70;1806447;79;20151;-72
2024/03/28 11:22:36;;;;;;;;;;;;;;;9.78;100.00;99514.98;1809777;78;20459;-70
2024/03/28 11:25:03;;;;;;;;;;;;;;;9.73;100.00;99510.98;1789496;78;20107;-69
2024/03/28 11:27:31;;;;;;;;;;;;;;;9.70;100.00;99506.80;1824523;78;20141;-73
2024/03/28 11:30:08;;;;;;;;;;;;;;;9.71;100.00;99520.18;1795024;78;20146;-69
2024/03/28 11:32:36;;;;;;;;;;;;;;;9.71;100.00;99520.18;1810798;77;20353;-71
2024/03/28 11:35:08;;;;;;;;;;;;;;;9.69;100.00;99514.23;1823898;77;20093;-70
2024/03/28 11:37:36;;;;;;;;;;;;;;;9.70;100.00;99514.14;1786302;77;20425;-70
2024/03/28 11:40:08;;;;;;;;;;;;;;;9.69;100.00;99509.88;1773696;79;20200;-69
2024/03/28 11:42:34;;;;;;;;;;;;;;;9.72;100.00;99514.52;1814993;78;20126;-69
2024/03/28 11:45:04;;;;;;;;;;;;;;;9.72;100.00;99505.41;1811767;78;20100;-71
2024/03/28 11:47:32;;;;;;;;;;;;;;;9.71;100.00;99500.68;1794995;78;20170;-70
2024/03/28 11:50:08;;;;;;;;;;;;;;;9.70;100.00;99502.45;1802058;79;20101;-72
2024/03/28 11:52:38;;;;;;;;;;;;;;;9.72;100.00;99493.72;1810508;78;20104;-70
2024/03/28 11:55:05;;;;;;;;;;;;;;;9.72;100.00;99481.55;1791570;78;20395;-73
2024/03/28 11:57:34;;;;;;;;;;;;;;;9.73;100.00;99472.83;1807169;77;20216;-76
2024/03/28 12:00:04;;;;;;;;;;;;;;;9.78;100.00;99486.84;1819433;77;20120;-73
2024/03/28 12:02:33;;;;;;;;;;;;;;;9.85;100.00;99469.94;1810561;77;20121;-71
2024/03/28 12:05:12;;;;;;;;;;;;;;;9.94;100.00;99472.81;1807409;77;20122;-78
2024/03/28 12:07:40;;;;;;;;;;;;;;;10.06;100.00;99460.78;1816356;77;20104;-70
2024/03/28 12:10:07;;;;;;;;;;;;;;;10.19;100.00;99457.81;1810000;77;20385;-75
2024/03/28 12:12:40;;;;;;;;;;;;;;;10.31;100.00;99446.63;1776422;79;20127;-73
2024/03/28 12:15:08;;;;;;;;;;;;;;;10.45;100.00;99450.08;1788234;79;20157;-70
2024/03/28 12:17:36;;;;;;;;;;;;;;;10.56;91.10;99445.02;1806486;77;20141;-72
2024/03/28 12:20:08;;;;;;;;;;;;;;;10.66;90.00;99443.02;1806924;77;20168;-69
2024/03/28 12:22:37;;;;;;;;;;;;;;;10.77;89.30;99446.23;1813029;77;20100;-75
2024/03/28 12:25:08;;;;;;;;;;;;;;;10.90;87.45;99429.30;1803011;77;20181;-73
2024/03/28 12:27:35;;;;;;;;;;;;;;;10.98;84.33;99427.02;1805076;78;20147;-71
2024/03/28 12:30:05;;;;;;;;;;;;;;;11.05;84.65;99416.55;1813882;77;20136;-71
2024/03/28 12:32:32;;;;;;;;;;;;;;;11.15;84.54;99409.78;1804416;77;20098;-73
2024/03/28 12:34:59;;;;;;;;;;;;;;;11.28;83.13;99418.41;1822699;77;20527;-74
2024/03/28 12:37:28;;;;;;;;;;;;;;;11.35;80.38;99394.05;1816877;77;20129;-75
2024/03/28 12:40:05;;;;;;;;;;;;;;;11.38;80.90;99393.01;1807199;78;20183;-72
2024/03/28 12:42:39;;;;;;;;;;;;;;;11.40;82.17;99404.16;1803785;77;20163;-76
2024/03/28 12:45:19;;;;;;;;;;;;;;;11.44;81.83;99399.10;1788233;77;20125;-72
2024/03/28 12:47:48;;;;;;;;;;;;;;;11.45;81.61;99404.21;1797785;77;20120;-76
2024/03/28 12:50:16;;;;;;;;;;;;;;;11.46;81.21;99386.33;1803830;78;20134;-72
2024/03/28 12:52:47;;;;;;;;;;;;;;;11.47;80.61;99390.60;1820985;77;20771;-74
2024/03/28 12:55:14;;;;;;;;;;;;;;;11.54;80.25;99384.48;1801425;78;20155;-73
2024/03/28 12:57:40;;;;;;;;;;;;;;;11.58;79.93;99375.05;1811476;77;20103;-71
2024/03/28 13:00:11;;;;;;;;;;;;;;;11.64;78.87;99377.19;1776818;79;20475;-71
2024/03/28 13:02:41;;;;;;;;;;;;;;;11.69;78.91;99369.05;1777555;79;20450;-71
2024/03/28 13:05:13;;;;;;;;;;;;;;;11.71;77.52;99365.86;1822319;77;20137;-75
2024/03/28 13:07:41;;;;;;;;;;;;;;;11.71;77.55;99356.73;1813304;77;20088;-75
2024/03/28 13:10:08;;;;;;;;;;;;;;;11.72;78.92;99358.86;1795268;78;20130;-75
2024/03/28 13:12:35;;;;;;;;;;;;;;;11.72;78.05;99349.27;1798427;79;20102;-79
2024/03/28 13:15:03;;;;;;;;;;;;;;;11.73;78.75;99354.01;1806597;77;20094;-74
2024/03/28 13:17:30;;;;;;;;;;;;;;;11.73;80.29;99343.58;1801461;78;20131;-70
2024/03/28 13:19:57;;;;;;;;;;;;;;;11.75;80.29;99348.21;1777026;79;20234;-73
2024/03/28 13:22:24;;;;;;;;;;;;;;;11.76;80.36;99348.10;1801635;78;20356;-71
2024/03/28 13:24:52;;;;;;;;;;;;;;;11.78;81.17;99349.33;1804469;77;20133;-76
2024/03/28 13:27:20;;;;;;;;;;;;;;;11.81;81.40;99335.60;1831173;77;20096;-74
2024/03/28 13:29:46;;;;;;;;;;;;;;;11.84;81.89;99331.47;1820656;77;20461;-76
2024/03/28 13:32:14;;;;;;;;;;;;;;;11.87;82.10;99321.28;1755606;79;20176;-75
2024/03/28 13:34:41;;;;;;;;;;;;;;;11.91;82.65;99322.26;1742155;81;20464;-76
2024/03/28 13:37:09;;;;;;;;;;;;;;;11.96;82.88;99314.09;1763361;80;20188;-73
2024/03/28 13:39:39;;;;;;;;;;;;;;;11.99;80.86;99329.06;1731471;80;20199;-76
2024/03/28 13:42:08;;;;;;;;;;;;;;;12.01;80.76;99308.05;1813040;77;20107;-77
2024/03/28 13:44:35;;;;;;;;;;;;;;;12.01;81.19;99300.21;1777121;79;20102;-79
2024/03/28 13:47:01;;;;;;;;;;;;;;;12.02;79.65;99296.66;1820030;78;20119;-74
2024/03/28 13:49:30;;;;;;;;;;;;;;;11.99;79.53;99300.83;1821295;77;20112;-77
2024/03/28 13:52:01;;;;;;;;;;;;;;;11.97;78.92;99293.59;1821179;77;20151;-73
2024/03/28 13:54:31;;;;;;;;;;;;;;;11.95;79.18;99292.86;1780232;78;20376;-75
2024/03/28 13:56:58;;;;;;;;;;;;;;;11.93;79.13;99296.05;1762595;79;20096;-71
2024/03/28 13:59:24;;;;;;;;;;;;;;;11.93;79.02;99285.15;1816603;78;20387;-72
2024/03/28 14:02:05;;;;;;;;;;;;;;;11.97;79.55;99270.11;1825221;77;20186;-79
2024/03/28 14:04:32;;;;;;;;;;;;;;;12.03;80.20;99264.41;1807969;78;20177;-79
2024/03/28 14:06:59;;;;;;;;;;;;;;;12.11;80.33;99265.14;1805928;77;20108;-77
2024/03/28 14:09:25;;;;;;;;;;;;;;;12.20;80.07;99268.38;1805030;77;20112;-75
2024/03/28 14:11:52;;;;;;;;;;;;;;;12.27;79.35;99255.23;1802237;77;20172;-72
2024/03/28 14:14:22;;;;;;;;;;;;;;;12.33;79.05;99256.91;1817850;77;20145;-73
2024/03/28 14:16:51;;;;;;;;;;;;;;;12.37;79.41;99244.45;1803970;78;20134;-72
2024/03/28 14:19:27;;;;;;;;;;;;;;;12.39;79.36;99246.95;1798425;78;20861;-75
2024/03/28 14:22:03;;;;;;;;;;;;;;;12.38;80.13;99240.89;1815856;77;20417;-71
2024/03/28 14:24:31;;;;;;;;;;;;;;;12.38;80.24;99245.28;1801658;77;20122;-72
2024/03/28 14:26:58;;;;;;;;;;;;;;;12.33;80.49;99236.50;1818542;77;20188;-72
2024/03/28 14:29:24;;;;;;;;;;;;;;;12.31;81.28;99237.92;1796052;78;20165;-72
2024/03/28 14:31:51;;;;;;;;;;;;;;;12.28;81.87;99238.62;1794748;77;20118;-72
2024/03/28 14:34:22;;;;;;;;;;;;;;;12.25;81.17;99237.55;1815469;77;20135;-75
2024/03/28 14:36:51;;;;;;;;;;;;;;;12.21;81.03;99242.63;1812499;78;20406;-71
2024/03/28 14:39:17;;;;;;;;;;;;;;;12.16;81.35;99233.84;1801863;77;20511;-74
2024/03/28 14:41:46;;;;;;;;;;;;;;;12.13;81.21;99231.94;1815861;77;20125;-78
2024/03/28 14:44:12;;;;;;;;;;;;;;;12.08;81.58;99221.84;1823109;77;20474;-72
2024/03/28 14:46:43;;;;;;;;;;;;;;;12.05;81.21;99231.67;1793231;79;20103;-75
2024/03/28 14:49:24;;;;;;;;;;;;;;;12.01;80.47;99230.59;1815588;78;20117;-75
2024/03/28 14:51:50;;;;;;;;;;;;;;;11.97;80.67;99231.80;1813146;77;20154;-75
2024/03/28 14:54:18;;;;;;;;;;;;;;;11.94;81.46;99240.33;1817276;77;20202;-73
2024/03/28 14:56:48;;;;;;;;;;;;;;;11.89;82.09;99233.31;1798986;77;20100;-74
2024/03/28 14:59:15;;;;;;;;;;;;;;;11.83;80.74;99230.68;1807393;77;20502;-77
2024/03/28 15:01:41;;;;;;;;;;;;;;;11.81;80.23;99235.65;1815791;77;20129;-72
2024/03/28 15:04:12;;;;;;;;;;;;;;;11.79;79.70;99221.89;1815804;77;20169;-73
2024/03/28 15:06:40;;;;;;;;;;;;;;;11.77;79.02;99216.78;1806504;79;20769;-69
2024/03/28 15:09:08;;;;;;;;;;;;;;;11.75;78.72;99212.12;1798230;77;20203;-70
2024/03/28 15:11:45;;;;;;;;;;;;;;;11.75;78.98;99219.95;1815282;78;20177;-74
2024/03/28 15:14:11;;;;;;;;;;;;;;;11.74;79.29;99216.14;1799525;78;20161;-70
2024/03/28 15:16:38;;;;;;;;;;;;;;;11.72;79.44;99199.77;1806783;79;20226;-72
2024/03/28 15:19:08;;;;;;;;;;;;;;;11.69;79.58;99191.23;1802436;79;20133;-72
2024/03/28 15:21:34;;;;;;;;;;;;;;;11.66;79.37;99199.28;1806860;79;20140;-70
2024/03/28 15:24:02;;;;;;;;;;;;;;;11.64;79.72;99202.47;1781816;79;20138;-70
2024/03/28 15:26:29;;;;;;;;;;;;;;;11.61;79.32;99204.47;1817782;77;20102;-71
2024/03/28 15:28:55;;;;;;;;;;;;;;;11.58;79.79;99206.86;1820376;77;20411;-72
2024/03/28 15:31:23;;;;;;;;;;;;;;;11.55;79.64;99201.88;1806461;78;20381;-72
2024/03/28 15:33:51;;;;;;;;;;;;;;;11.52;79.59;99196.05;1795091;79;20103;-72
2024/03/28 15:36:17;;;;;;;;;;;;;;;11.47;79.93;99189.03;1808582;78;20165;-72
2024/03/28 15:38:46;;;;;;;;;;;;;;;11.42;80.47;99189.36;1851420;77;20156;-71
2024/03/28 15:41:12;;;;;;;;;;;;;;;11.38;80.83;99184.02;1840743;77;20370;-71
2024/03/28 15:43:38;;;;;;;;;;;;;;;11.33;81.28;99173.09;1834328;77;20460;-70
2024/03/28 15:46:09;;;;;;;;;;;;;;;11.28;81.80;99173.89;1831444;77;20158;-70
2024/03/28 15:48:35;;;;;;;;;;;;;;;11.23;81.98;99165.09;1836576;77;20179;-70
2024/03/28 15:51:04;;;;;;;;;;;;;;;11.17;82.78;99167.34;1844142;77;20123;-70
2024/03/28 15:53:34;;;;;;;;;;;;;;;11.12;83.54;99168.14;1828520;77;20080;-71
2024/03/28 15:56:05;;;;;;;;;;;;;;;11.06;84.42;99162.90;1836297;78;20406;-70
2024/03/28 15:58:32;;;;;;;;;;;;;;;10.99;85.14;99156.45;1845757;77;20123;-71
2024/03/28 16:00:59;;;;;;;;;;;;;;;10.95;86.04;99157.62;1837117;77;20127;-71
2024/03/28 16:03:26;;;;;;;;;;;;;;;10.88;86.84;99148.58;1794945;77;20125;-70
2024/03/28 16:05:53;;;;;;;;;;;;;;;10.81;87.61;99148.17;1781677;79;20130;-71
2024/03/28 16:08:19;;;;;;;;;;;;;;;10.76;88.30;99142.95;1844668;78;20104;-69
2024/03/28 16:10:45;;;;;;;;;;;;;;;10.70;88.72;99150.73;1844319;77;20385;-70
